createdAt,value
2023-04-04T00:00:39.975Z,-3.61
2023-04-04T00:03:07.093Z,-3.63
2023-04-04T00:05:35.668Z,-3.64
2023-04-04T00:08:03.687Z,-3.68
2023-04-04T00:10:30.361Z,-3.68
2023-04-04T00:12:57.056Z,-3.74
2023-04-04T00:15:23.654Z,-3.74
2023-04-04T00:17:50.551Z,-3.79
2023-04-04T00:20:17.285Z,-3.81
2023-04-04T00:22:43.934Z,-3.84
2023-04-04T00:25:10.949Z,-3.82
2023-04-04T00:27:37.577Z,-3.77
2023-04-04T00:30:04.619Z,-3.82
2023-04-04T00:32:31.351Z,-3.85
2023-04-04T00:34:58.141Z,-3.85
2023-04-04T00:37:24.801Z,-3.83
2023-04-04T00:39:51.614Z,-3.76
2023-04-04T00:42:18.672Z,-3.78
2023-04-04T00:44:45.468Z,-3.89
2023-04-04T00:47:12.142Z,-3.96
2023-04-04T00:49:38.837Z,-3.99
2023-04-04T00:52:07.587Z,-4.03
2023-04-04T00:54:34.989Z,-4.09
2023-04-04T00:57:02.118Z,-4.18
2023-04-04T00:59:29.217Z,-4.23
2023-04-04T01:01:55.992Z,-4.19
2023-04-04T01:04:22.764Z,-4.18
2023-04-04T01:06:50.958Z,-4.22
2023-04-04T01:09:17.730Z,-4.21
2023-04-04T01:11:44.526Z,-4.11
2023-04-04T01:14:11.407Z,-4.04
2023-04-04T01:16:38.617Z,-4.06
2023-04-04T01:19:08.958Z,-4.16
2023-04-04T01:21:36.278Z,-4.17
2023-04-04T01:24:04.532Z,-4.23
2023-04-04T01:26:31.402Z,-4.32
2023-04-04T01:28:58.840Z,-4.37
2023-04-04T01:31:32.077Z,-4.26
2023-04-04T01:34:10.803Z,-4.16
2023-04-04T01:36:47.418Z,-4.19
2023-04-04T01:39:19.968Z,-4.25
2023-04-04T01:41:48.303Z,-4.42
2023-04-04T01:44:17.373Z,-4.46
2023-04-04T01:46:43.989Z,-4.53
2023-04-04T01:49:11.336Z,-4.60
2023-04-04T01:51:38.907Z,-4.59
2023-04-04T01:54:05.577Z,-4.63
2023-04-04T01:56:32.913Z,-4.69
2023-04-04T01:58:59.588Z,-4.74
2023-04-04T02:01:26.272Z,-4.74
2023-04-04T02:07:22.860Z,-4.81
2023-04-04T02:09:54.626Z,-4.81
2023-04-04T02:12:22.419Z,-4.73
2023-04-04T02:14:49.545Z,-4.79
2023-04-04T02:17:16.134Z,-4.76
2023-04-04T02:19:42.710Z,-4.86
2023-04-04T02:22:09.294Z,-4.88
2023-04-04T02:24:35.910Z,-4.95
2023-04-04T02:27:02.557Z,-5.00
2023-04-04T02:29:29.163Z,-5.00
2023-04-04T02:31:55.973Z,-5.02
2023-04-04T02:34:22.543Z,-5.08
2023-04-04T02:36:49.139Z,-5.13
2023-04-04T02:39:15.909Z,-5.16
2023-04-04T02:41:42.832Z,-5.17
2023-04-04T02:44:10.211Z,-5.23
2023-04-04T02:46:36.945Z,-5.22
2023-04-04T02:49:04.164Z,-5.25
2023-04-04T02:51:31.170Z,-5.19
2023-04-04T02:53:57.805Z,-5.21
2023-04-04T02:56:24.404Z,-5.21
2023-04-04T02:58:51.026Z,-5.32
2023-04-04T03:01:17.839Z,-5.39
2023-04-04T03:03:44.601Z,-5.25
2023-04-04T03:06:11.483Z,-5.21
2023-04-04T03:08:38.690Z,-5.31
2023-04-04T03:11:05.656Z,-5.29
2023-04-04T03:13:32.344Z,-5.27
2023-04-04T03:16:04.530Z,-5.41
2023-04-04T03:18:31.584Z,-5.47
2023-04-04T03:20:58.497Z,-5.45
2023-04-04T03:23:25.330Z,-5.48
2023-04-04T03:25:52.136Z,-5.53
2023-04-04T03:28:20.030Z,-5.52
2023-04-04T03:30:47.496Z,-5.59
2023-04-04T03:33:14.097Z,-5.63
2023-04-04T03:35:41.255Z,-5.56
2023-04-04T03:38:09.412Z,-5.53
2023-04-04T03:40:36.589Z,-5.57
2023-04-04T03:43:03.298Z,-5.68
2023-04-04T03:45:30.325Z,-5.73
2023-04-04T03:47:56.981Z,-5.63
2023-04-04T03:50:23.745Z,-5.66
2023-04-04T03:52:50.718Z,-5.67
2023-04-04T03:55:17.541Z,-5.70
2023-04-04T03:57:44.257Z,-5.69
2023-04-04T04:00:12.235Z,-5.73
2023-04-04T04:02:39.265Z,-5.72
2023-04-04T04:05:06.217Z,-5.74
2023-04-04T04:07:32.952Z,-5.79
2023-04-04T04:09:59.603Z,-5.81
2023-04-04T04:12:28.727Z,-5.83
2023-04-04T04:14:55.611Z,-5.89
2023-04-04T04:17:22.415Z,-5.95
2023-04-04T04:19:49.441Z,-5.93
2023-04-04T04:22:16.281Z,-6.00
2023-04-04T04:24:51.458Z,-5.93
2023-04-04T04:27:19.323Z,-6.02
2023-04-04T04:29:46.293Z,-5.90
2023-04-04T04:32:17.050Z,-5.98
2023-04-04T04:34:43.822Z,-5.90
2023-04-04T04:37:10.538Z,-5.99
2023-04-04T04:39:37.303Z,-6.03
2023-04-04T04:42:03.963Z,-6.03
2023-04-04T04:44:30.657Z,-6.05
2023-04-04T04:46:57.460Z,-6.02
2023-04-04T04:49:24.203Z,-6.03
2023-04-04T04:51:51.703Z,-6.02
2023-04-04T04:54:18.380Z,-6.05
2023-04-04T04:56:45.497Z,-6.05
2023-04-04T04:59:12.903Z,-6.02
2023-04-04T05:01:39.626Z,-6.00
2023-04-04T05:04:06.312Z,-5.96
2023-04-04T05:06:32.910Z,-5.91
2023-04-04T05:08:59.575Z,-5.90
2023-04-04T05:11:26.256Z,-5.85
2023-04-04T05:13:52.873Z,-5.81
2023-04-04T05:16:20.551Z,-5.79
2023-04-04T05:18:50.375Z,-5.70
2023-04-04T05:21:17.475Z,-5.70
2023-04-04T05:23:45.271Z,-5.71
2023-04-04T05:26:11.945Z,-5.67
2023-04-04T05:28:38.532Z,-5.54
2023-04-04T05:31:05.178Z,-5.41
2023-04-04T05:33:31.868Z,-5.30
2023-04-04T05:36:02.002Z,-5.23
2023-04-04T05:38:29.474Z,-5.30
2023-04-04T05:40:56.317Z,-5.25
2023-04-04T05:43:23.064Z,-5.18
2023-04-04T05:45:49.673Z,-5.17
2023-04-04T05:48:16.381Z,-5.10
2023-04-04T05:50:46.027Z,-5.11
2023-04-04T05:53:12.644Z,-5.08
2023-04-04T05:55:39.311Z,-4.91
2023-04-04T05:58:05.919Z,-4.91
2023-04-04T06:00:33.247Z,-4.88
2023-04-04T06:03:00.222Z,-4.67
2023-04-04T06:05:27.041Z,-4.61
2023-04-04T06:07:53.717Z,-4.72
2023-04-04T06:10:20.411Z,-4.61
2023-04-04T06:12:47.048Z,-4.61
2023-04-04T06:15:13.755Z,-4.54
2023-04-04T06:17:40.670Z,-4.49
2023-04-04T06:20:08.366Z,-4.36
2023-04-04T06:22:35.075Z,-4.34
2023-04-04T06:25:01.744Z,-3.43
2023-04-04T06:27:28.431Z,-2.08
2023-04-04T06:29:55.024Z,-0.61
2023-04-04T06:32:22.536Z,0.78
2023-04-04T06:34:49.279Z,1.98
2023-04-04T06:37:16.577Z,3.13
2023-04-04T06:39:43.565Z,3.71
2023-04-04T06:42:10.248Z,4.57
2023-04-04T06:44:36.864Z,5.02
2023-04-04T06:47:03.566Z,5.23
2023-04-04T06:49:30.256Z,5.13
2023-04-04T06:51:57.008Z,5.66
2023-04-04T06:54:23.770Z,6.02
2023-04-04T06:56:50.661Z,6.11
2023-04-04T06:59:17.360Z,6.49
2023-04-04T07:01:44.277Z,6.57
2023-04-04T07:04:11.247Z,6.94
2023-04-04T07:06:37.891Z,6.85
2023-04-04T07:09:22.011Z,6.92
2023-04-04T07:11:55.487Z,6.96
2023-04-04T07:14:25.294Z,6.97
2023-04-04T07:16:52.665Z,6.52
2023-04-04T07:19:19.394Z,6.56
2023-04-04T07:21:46.049Z,6.64
2023-04-04T07:24:12.742Z,6.33
2023-04-04T07:26:40.899Z,6.05
2023-04-04T07:29:08.011Z,5.98
2023-04-04T07:31:34.812Z,5.58
2023-04-04T07:34:02.099Z,4.27
2023-04-04T07:36:28.749Z,4.64
2023-04-04T07:38:55.511Z,4.45
2023-04-04T07:41:22.640Z,3.71
2023-04-04T07:43:49.671Z,3.71
2023-04-04T07:46:17.127Z,3.60
2023-04-04T07:48:44.262Z,3.57
2023-04-04T07:51:10.897Z,3.73
2023-04-04T07:53:37.599Z,3.72
2023-04-04T07:56:06.557Z,3.76
2023-04-04T07:58:34.176Z,3.73
2023-04-04T08:01:01.612Z,3.27
2023-04-04T08:03:28.581Z,3.16
2023-04-04T08:05:55.597Z,3.30
2023-04-04T08:08:22.712Z,3.09
2023-04-04T08:10:49.367Z,3.11
2023-04-04T08:13:16.017Z,2.84
2023-04-04T08:15:42.736Z,2.97
2023-04-04T08:18:09.441Z,3.02
2023-04-04T08:20:36.341Z,2.85
2023-04-04T08:23:03.174Z,2.65
2023-04-04T08:25:30.520Z,2.71
2023-04-04T08:27:57.146Z,3.08
2023-04-04T08:30:23.862Z,3.20
2023-04-04T08:32:51.299Z,3.22
2023-04-04T08:35:22.883Z,3.14
2023-04-04T08:37:49.997Z,3.21
2023-04-04T08:40:17.091Z,3.21
2023-04-04T08:42:46.018Z,3.45
2023-04-04T08:45:12.945Z,3.50
2023-04-04T08:47:39.947Z,3.58
2023-04-04T08:50:07.836Z,3.89
2023-04-04T08:52:38.143Z,3.86
2023-04-04T08:55:05.625Z,4.06
2023-04-04T08:57:33.453Z,4.31
2023-04-04T09:00:00.618Z,4.46
2023-04-04T09:02:35.404Z,4.75
2023-04-04T09:05:06.814Z,4.78
2023-04-04T09:07:37.195Z,5.11
2023-04-04T09:10:05.150Z,5.25
2023-04-04T09:12:32.603Z,5.11
2023-04-04T09:15:00.818Z,5.39
2023-04-04T09:17:27.584Z,5.45
2023-04-04T09:19:54.718Z,5.70
2023-04-04T09:22:22.418Z,5.57
2023-04-04T09:24:50.615Z,5.36
2023-04-04T09:27:17.414Z,5.70
2023-04-04T09:29:44.052Z,5.78
2023-04-04T09:32:14.375Z,6.28
2023-04-04T09:34:41.981Z,6.42
2023-04-04T09:37:08.632Z,6.73
2023-04-04T09:39:39.028Z,7.00
2023-04-04T09:42:07.561Z,6.59
2023-04-04T09:44:34.334Z,6.82
2023-04-04T09:50:01.391Z,7.26
2023-04-04T09:52:33.058Z,7.50
2023-04-04T09:55:00.854Z,7.47
2023-04-04T09:57:35.967Z,7.05
2023-04-04T10:00:09.546Z,6.61
2023-04-04T10:02:47.993Z,7.27
2023-04-04T10:05:14.887Z,7.54
2023-04-04T10:07:44.810Z,8.01
2023-04-04T10:10:11.702Z,7.59
2023-04-04T10:12:39.005Z,7.88
2023-04-04T10:15:06.552Z,8.18
2023-04-04T10:17:38.323Z,8.03
2023-04-04T10:20:15.153Z,7.77
2023-04-04T10:22:43.642Z,7.28
2023-04-04T10:25:11.563Z,6.93
2023-04-04T10:27:38.838Z,6.71
2023-04-04T10:30:07.817Z,7.10
2023-04-04T10:33:00.671Z,7.97
2023-04-04T10:35:28.457Z,8.27
2023-04-04T10:37:59.344Z,8.42
2023-04-04T10:40:31.449Z,8.23
2023-04-04T10:42:59.855Z,8.27
2023-04-04T10:45:27.347Z,7.61
2023-04-04T10:47:54.364Z,7.31
2023-04-04T10:50:21.384Z,7.01
2023-04-04T10:52:48.301Z,7.13
2023-04-04T10:55:16.014Z,6.89
2023-04-04T10:57:44.842Z,7.56
2023-04-04T11:00:18.011Z,8.18
2023-04-04T11:02:58.221Z,8.32
2023-04-04T11:05:40.821Z,8.52
2023-04-04T11:08:10.677Z,9.12
2023-04-04T11:10:39.897Z,9.42
2023-04-04T11:13:23.681Z,8.07
2023-04-04T11:15:56.777Z,7.61
2023-04-04T11:18:34.272Z,7.35
2023-04-04T11:21:05.677Z,6.94
2023-04-04T11:23:47.582Z,7.49
2023-04-04T11:26:17.757Z,7.93
2023-04-04T11:28:46.423Z,8.17
2023-04-04T11:31:19.894Z,8.56
2023-04-04T11:34:07.995Z,8.99
2023-04-04T11:36:41.505Z,9.38
2023-04-04T11:39:10.974Z,8.59
2023-04-04T11:41:54.602Z,9.02
2023-04-04T11:44:24.682Z,8.95
2023-04-04T11:47:02.661Z,8.61
2023-04-04T11:49:31.499Z,8.14
2023-04-04T11:51:58.800Z,8.42
2023-04-04T11:54:27.422Z,8.42
2023-04-04T11:56:54.928Z,7.72
2023-04-04T11:59:22.748Z,8.32
2023-04-04T12:01:52.524Z,7.94
2023-04-04T12:04:20.410Z,8.32
2023-04-04T12:06:51.562Z,7.92
2023-04-04T12:09:19.383Z,7.85
2023-04-04T12:11:47.580Z,7.75
2023-04-04T12:14:20.968Z,7.69
2023-04-04T12:16:48.986Z,7.40
2023-04-04T12:19:17.088Z,7.41
2023-04-04T12:21:44.624Z,7.14
2023-04-04T12:24:11.845Z,7.21
2023-04-04T12:26:40.942Z,7.40
2023-04-04T12:29:12.935Z,7.08
2023-04-04T12:31:41.698Z,7.05
2023-04-04T12:34:16.554Z,6.95
2023-04-04T12:36:43.285Z,6.91
2023-04-04T12:39:14.372Z,7.13
2023-04-04T12:41:49.577Z,6.97
2023-04-04T12:44:33.460Z,7.11
2023-04-04T12:47:02.156Z,7.04
2023-04-04T12:49:34.619Z,7.11
2023-04-04T12:52:05.404Z,7.34
2023-04-04T12:54:36.036Z,7.60
2023-04-04T12:57:08.138Z,7.62
2023-04-04T13:00:00.097Z,7.50
2023-04-04T13:02:26.850Z,7.36
2023-04-04T13:04:57.330Z,7.17
2023-04-04T13:07:29.222Z,7.62
2023-04-04T13:10:04.531Z,7.97
2023-04-04T13:12:58.377Z,8.29
2023-04-04T13:15:48.469Z,8.16
2023-04-04T13:18:23.680Z,8.34
2023-04-04T13:20:52.791Z,8.02
2023-04-04T13:23:20.598Z,8.06
2023-04-04T13:25:47.492Z,7.73
2023-04-04T13:28:14.487Z,7.66
2023-04-04T13:30:46.824Z,7.36
2023-04-04T13:33:13.836Z,7.03
2023-04-04T13:35:43.661Z,7.25
2023-04-04T13:38:11.376Z,7.39
2023-04-04T13:40:38.378Z,7.50
2023-04-04T13:43:05.288Z,7.46
2023-04-04T13:45:35.879Z,7.15
2023-04-04T13:48:02.962Z,7.05
2023-04-04T13:50:31.924Z,7.17
2023-04-04T13:52:59.108Z,6.95
2023-04-04T13:55:26.202Z,6.95
2023-04-04T13:57:53.043Z,6.91
2023-04-04T14:00:19.922Z,6.75
2023-04-04T14:02:49.025Z,6.76
2023-04-04T14:05:16.053Z,6.83
2023-04-04T14:07:42.748Z,6.88
2023-04-04T14:10:11.554Z,6.86
2023-04-04T14:12:38.634Z,7.10
2023-04-04T14:15:07.359Z,6.88
2023-04-04T14:17:34.067Z,7.13
2023-04-04T14:20:00.818Z,7.22
2023-04-04T14:22:27.542Z,7.25
2023-04-04T14:24:54.139Z,7.27
2023-04-04T14:27:20.766Z,6.90
2023-04-04T14:29:47.399Z,6.87
2023-04-04T14:32:14.196Z,6.96
2023-04-04T14:34:40.945Z,6.65
2023-04-04T14:37:08.178Z,6.58
2023-04-04T14:39:34.855Z,6.64
2023-04-04T14:42:01.804Z,6.69
2023-04-04T14:44:28.414Z,6.43
2023-04-04T14:46:55.121Z,6.57
2023-04-04T14:49:21.740Z,6.82
2023-04-04T14:51:48.356Z,6.78
2023-04-04T14:54:14.939Z,6.85
2023-04-04T14:56:43.065Z,6.48
2023-04-04T14:59:09.817Z,6.69
2023-04-04T15:01:36.693Z,6.87
2023-04-04T15:04:03.798Z,6.86
2023-04-04T15:06:36.165Z,7.17
2023-04-04T15:09:06.730Z,7.28
2023-04-04T15:11:35.394Z,7.25
2023-04-04T15:14:02.320Z,7.33
2023-04-04T15:16:33.293Z,7.24
2023-04-04T15:19:00.688Z,6.97
2023-04-04T15:21:28.374Z,6.86
2023-04-04T15:23:55.257Z,6.63
2023-04-04T15:26:22.923Z,6.75
2023-04-04T15:28:49.836Z,6.69
2023-04-04T15:31:17.219Z,6.53
2023-04-04T15:33:43.911Z,6.46
2023-04-04T15:36:10.715Z,6.61
2023-04-04T15:38:37.357Z,6.73
2023-04-04T15:41:10.351Z,6.64
2023-04-04T15:43:36.969Z,6.69
2023-04-04T15:46:03.696Z,6.86
2023-04-04T15:48:30.390Z,6.92
2023-04-04T15:51:02.362Z,7.16
2023-04-04T15:53:30.454Z,7.27
2023-04-04T15:55:57.593Z,7.25
2023-04-04T15:58:25.133Z,7.31
2023-04-04T16:00:52.417Z,7.18
2023-04-04T16:03:19.261Z,7.07
2023-04-04T16:05:46.778Z,7.09
2023-04-04T16:08:13.891Z,6.67
2023-04-04T16:10:41.270Z,6.85
2023-04-04T16:13:08.197Z,6.93
2023-04-04T16:15:34.838Z,6.87
2023-04-04T16:18:03.219Z,6.75
2023-04-04T16:20:30.245Z,6.84
2023-04-04T16:22:56.914Z,6.68
2023-04-04T16:25:24.609Z,6.68
2023-04-04T16:27:51.263Z,6.72
2023-04-04T16:30:17.885Z,6.53
2023-04-04T16:32:47.066Z,6.41
2023-04-04T16:35:13.900Z,6.35
2023-04-04T16:37:40.851Z,6.04
2023-04-04T16:40:08.344Z,6.03
2023-04-04T16:42:35.084Z,6.11
2023-04-04T16:45:01.867Z,5.79
2023-04-04T16:47:28.571Z,5.85
2023-04-04T16:49:55.300Z,5.63
2023-04-04T16:52:22.015Z,5.33
2023-04-04T16:54:53.049Z,5.62
2023-04-04T16:57:19.802Z,5.51
2023-04-04T16:59:46.424Z,5.45
2023-04-04T17:02:14.529Z,5.48
2023-04-04T17:04:43.673Z,5.43
2023-04-04T17:07:10.405Z,5.30
2023-04-04T17:09:37.311Z,5.06
2023-04-04T17:12:04.220Z,4.92
2023-04-04T17:14:30.964Z,4.85
2023-04-04T17:17:00.507Z,4.61
2023-04-04T17:19:31.721Z,4.58
2023-04-04T17:21:58.906Z,4.47
2023-04-04T17:24:27.078Z,4.46
2023-04-04T17:26:54.451Z,4.45
2023-04-04T17:29:26.435Z,4.27
2023-04-04T17:31:56.896Z,4.09
2023-04-04T17:34:24.316Z,4.03
2023-04-04T17:36:51.953Z,3.93
2023-04-04T17:39:19.112Z,3.79
2023-04-04T17:41:49.465Z,3.55
2023-04-04T17:44:17.126Z,3.50
2023-04-04T17:46:45.115Z,3.37
2023-04-04T17:49:12.515Z,3.28
2023-04-04T17:51:39.226Z,3.19
2023-04-04T17:54:06.867Z,2.97
2023-04-04T17:56:33.628Z,2.98
2023-04-04T17:59:00.844Z,2.81
2023-04-04T18:01:29.494Z,2.75
2023-04-04T18:03:59.086Z,2.67
2023-04-04T18:06:27.212Z,2.61
2023-04-04T18:08:54.842Z,2.51
2023-04-04T18:11:22.090Z,2.47
2023-04-04T18:13:48.957Z,2.32
2023-04-04T18:16:15.690Z,2.22
2023-04-04T18:18:42.649Z,2.13
2023-04-04T18:21:09.424Z,1.95
2023-04-04T18:23:36.448Z,1.89
2023-04-04T18:26:03.425Z,1.79
2023-04-04T18:28:30.170Z,1.75
2023-04-04T18:30:57.996Z,1.63
2023-04-04T18:33:25.145Z,1.57
2023-04-04T18:35:51.856Z,1.47
2023-04-04T18:38:19.030Z,1.38
2023-04-04T18:40:46.539Z,1.35
2023-04-04T18:43:13.463Z,1.24
2023-04-04T18:45:41.442Z,1.09
2023-04-04T18:48:08.876Z,0.94
2023-04-04T18:50:35.806Z,0.91
2023-04-04T18:53:03.398Z,0.80
2023-04-04T18:55:30.112Z,0.75
2023-04-04T18:57:57.591Z,0.66
2023-04-04T19:00:24.589Z,0.64
2023-04-04T19:02:51.406Z,0.57
2023-04-04T19:05:25.724Z,0.53
2023-04-04T19:07:53.458Z,0.43
2023-04-04T19:10:20.813Z,0.31
2023-04-04T19:12:47.557Z,0.26
2023-04-04T19:15:14.354Z,0.13
2023-04-04T19:17:41.304Z,0.12
2023-04-04T19:20:08.510Z,-0.01
2023-04-04T19:22:35.542Z,0.06
2023-04-04T19:25:02.269Z,0.08
2023-04-04T19:27:28.926Z,0.02
2023-04-04T19:29:55.721Z,-0.21
2023-04-04T19:32:24.912Z,-0.31
2023-04-04T19:34:52.013Z,-0.26
2023-04-04T19:37:19.188Z,-0.31
2023-04-04T19:39:46.096Z,-0.38
2023-04-04T19:42:12.710Z,-0.24
2023-04-04T19:44:42.734Z,-0.27
2023-04-04T19:47:10.412Z,-0.31
2023-04-04T19:49:38.167Z,-0.24
2023-04-04T19:52:05.817Z,-0.29
2023-04-04T19:54:38.989Z,-0.38
2023-04-04T19:57:16.501Z,-0.48
2023-04-04T19:59:56.004Z,-0.48
2023-04-04T20:02:34.999Z,-0.64
2023-04-04T20:05:02.301Z,-0.75
2023-04-04T20:07:29.020Z,-0.88
2023-04-04T20:09:55.916Z,-0.89
2023-04-04T20:12:26.493Z,-1.04
2023-04-04T20:14:55.476Z,-1.15
2023-04-04T20:17:22.140Z,-1.28
2023-04-04T20:19:48.802Z,-1.35
2023-04-04T20:22:16.946Z,-1.44
2023-04-04T20:24:46.661Z,-1.48
2023-04-04T20:27:23.588Z,-1.26
2023-04-04T20:29:52.827Z,-1.34
2023-04-04T20:32:19.551Z,-1.46
2023-04-04T20:34:50.492Z,-1.34
2023-04-04T20:37:23.030Z,-1.40
2023-04-04T20:39:53.303Z,-1.34
2023-04-04T20:42:26.053Z,-1.14
2023-04-04T20:44:53.840Z,-1.36
2023-04-04T20:47:34.500Z,-1.35
2023-04-04T20:50:01.292Z,-1.35
2023-04-04T20:52:27.908Z,-1.53
2023-04-04T20:54:54.518Z,-1.55
2023-04-04T20:57:24.669Z,-1.56
2023-04-04T20:59:51.475Z,-1.67
2023-04-04T21:02:20.916Z,-1.61
2023-04-04T21:04:51.958Z,-1.72
2023-04-04T21:07:37.439Z,-1.64
2023-04-04T21:10:20.365Z,-1.68
2023-04-04T21:12:46.972Z,-1.66
2023-04-04T21:15:22.305Z,-1.76
2023-04-04T21:17:50.380Z,-1.87
2023-04-04T21:20:55.281Z,-1.92
2023-04-04T21:23:24.979Z,-1.99
2023-04-04T21:26:02.703Z,-2.02
2023-04-04T21:28:42.167Z,-1.99
2023-04-04T21:31:14.916Z,-2.00
2023-04-04T21:33:46.536Z,-1.94
2023-04-04T21:36:23.544Z,-1.94
2023-04-04T21:38:52.289Z,-1.88
2023-04-04T21:41:26.192Z,-1.99
2023-04-04T21:43:53.834Z,-2.03
2023-04-04T21:46:25.321Z,-1.96
2023-04-04T21:48:52.500Z,-1.99
2023-04-04T21:51:19.649Z,-1.99
2023-04-04T21:53:48.140Z,-1.97
2023-04-04T21:56:17.858Z,-2.10
2023-04-04T21:58:44.924Z,-2.11
2023-04-04T22:01:11.593Z,-2.09
2023-04-04T22:03:38.587Z,-2.07
2023-04-04T22:06:05.607Z,-2.03
2023-04-04T22:08:33.330Z,-2.09
2023-04-04T22:11:02.272Z,-2.00
2023-04-04T22:13:42.873Z,-2.11
2023-04-04T22:16:15.961Z,-2.18
2023-04-04T22:18:46.884Z,-2.15
2023-04-04T22:21:16.938Z,-2.01
2023-04-04T22:23:44.663Z,-1.99
2023-04-04T22:26:32.978Z,-2.02
2023-04-04T22:29:04.608Z,-1.91
2023-04-04T22:31:34.385Z,-1.91
2023-04-04T22:34:04.415Z,-2.08
2023-04-04T22:36:33.901Z,-2.06
2023-04-04T22:39:00.491Z,-2.02
2023-04-04T22:41:30.041Z,-1.94
2023-04-04T22:43:57.554Z,-2.01
2023-04-04T22:46:25.974Z,-2.02
2023-04-04T22:49:04.601Z,-2.14
2023-04-04T22:51:35.119Z,-2.20
2023-04-04T22:54:02.767Z,-2.06
2023-04-04T22:56:29.412Z,-2.10
2023-04-04T22:58:56.115Z,-2.04
2023-04-04T23:01:22.815Z,-2.12
2023-04-04T23:03:49.742Z,-2.25
2023-04-04T23:06:16.747Z,-2.28
2023-04-04T23:08:46.816Z,-2.29
2023-04-04T23:11:13.434Z,-2.28
2023-04-04T23:13:42.339Z,-2.24
2023-04-04T23:16:11.538Z,-2.29
2023-04-04T23:18:41.257Z,-2.29
2023-04-04T23:21:07.853Z,-2.27
2023-04-04T23:23:34.649Z,-2.43
2023-04-04T23:26:01.574Z,-2.41
2023-04-04T23:28:29.430Z,-2.49
2023-04-04T23:30:56.197Z,-2.48
2023-04-04T23:33:22.821Z,-2.46
2023-04-04T23:35:49.612Z,-2.58
2023-04-04T23:38:16.993Z,-2.59
2023-04-04T23:40:43.616Z,-2.49
2023-04-04T23:43:10.807Z,-2.62
2023-04-04T23:45:40.013Z,-2.55
2023-04-04T23:48:06.866Z,-2.64
2023-04-04T23:50:33.547Z,-2.70
2023-04-04T23:53:00.340Z,-2.67
2023-04-04T23:55:27.379Z,-2.70
2023-04-04T23:57:56.219Z,-2.70
